• Join FlightAware (Why Join?)
  • Login
  • US Flag 
02:28AM EDT


 

Airport Tracker/Info


-or-


 

Live Flight TrackerFlight Track Log ✈ FDX3647 ✈ 16-Aug-2014 ✈ KOAK - KIND

Flight Track Log - Related Links

Times and Time Zones

All times are in EDT time to prevent confusion due to time zone crossing. See the FDX3647 flight status page for this flight to view local times or setup timezone preferences in your user account.

Time Position Orientation Groundspeed Altitude Reporting Facility
EDT Latitude Longitude Course Direction KTS MPH feet Rate Location/Type
09:37AM 37.7217 -122.2439 311° West 168 193 800  Level FlightAware ADS-B (KPAO)
09:37AM 37.7278 -122.2580 287° West 170 196 1,200 1,740 Climbing FlightAware ADS-B
09:38AM 37.7300 -122.2670 287° West 169 194 1,500 1,560 Climbing FlightAware ADS-B
09:38AM 37.7332 -122.2804 286° West 178 205 1,800 1,440 Climbing FlightAware ADS-B (KPAO)
09:38AM 37.7388 -122.3056 287° West 186 214 2,500 1,500 Climbing FlightAware ADS-B (KPAO)
09:38AM 37.7414 -122.3130 285° West 187 215 2,600 1,260 Climbing FlightAware ADS-B
09:38AM 37.7468 -122.3210 316° Northwest 194 223 2,800 1,500 Climbing FlightAware ADS-B
09:39AM 37.7491 -122.3240 323° Northwest 197 227 2,900 1,980 Climbing FlightAware ADS-B
09:39AM 37.7468 -122.3214 325° Northwest 198 228 3,000 1,080 Climbing FlightAware ADS-B (KPAO)
09:39AM 37.7610 -122.3340 325° Northwest 206 237 3,200 900 Climbing FlightAware ADS-B
09:39AM 37.7658 -122.3386 326° Northwest 214 246 3,300 1,080 Climbing FlightAware ADS-B (KPAO)
09:39AM 37.7777 -122.3489 326° Northwest 226 260 3,600 1,020 Climbing FlightAware ADS-B (KPAO)
09:39AM 37.7910 -122.3600 326° Northwest 239 275 3,800 1,560 Climbing FlightAware ADS-B
09:40AM 37.8093 -122.3756 327° Northwest 255 293 4,500 1,560 Climbing FlightAware ADS-B (KPAO)
09:40AM 37.8396 -122.3951 347° North 269 310 5,100 1,020 Climbing FlightAware ADS-B (KPAO)
09:40AM 37.8488 -122.3968 354° North 273 314 5,100 1,260 Level FlightAware ADS-B (KSJC)
09:40AM 37.8596 -122.3961 12° North 278 320 5,400 2,100 Climbing FlightAware ADS-B (KPAO)
09:41AM 37.8740 -122.3893 25° Northeast 278 320 5,800 1,860 Climbing FlightAware ADS-B (KSJC)
09:41AM 37.8908 -122.3673 63° Northeast 279 321 6,400 1,860 Climbing FlightAware ADS-B (KSJC)
09:41AM 37.8985 -122.3330 81° East 280 322 7,100 2,100 Climbing FlightAware ADS-B
09:42AM 37.9015 -122.3019 84° East 286 329 7,800 2,040 Climbing FlightAware ADS-B (KSJC)
09:42AM 37.9037 -122.2770 84° East 285 328 8,300 1,860 Climbing FlightAware ADS-B
09:42AM 37.9044 -122.2684 83° East 290 334 8,400 1,800 Climbing FlightAware ADS-B (KSJC)
09:42AM 37.9055 -122.2580 83° East 291 335 8,600 2,220 Climbing FlightAware ADS-B
09:42AM 37.9070 -122.2446 82° East 293 337 9,000 1,860 Climbing FlightAware ADS-B (KPAO)
09:42AM 37.9091 -122.2280 82° East 294 338 9,200 1,980 Climbing FlightAware ADS-B
09:43AM 37.9115 -122.2071 82° East 296 341 9,700 2,220 Climbing FlightAware ADS-B (KPAO)
09:43AM 37.9124 -122.1990 81° East 297 342 9,800 1,560 Climbing FlightAware ADS-B
09:43AM 37.9195 -122.1460 80° East 315 362 10,600 1,260 Climbing FlightAware ADS-B
09:43AM 37.9212 -122.1328 80° East 322 371 10,600 360 Level FlightAware ADS-B (KPAO)
09:44AM 37.9274 -122.0880 80° East 348 400 10,800 540 Climbing FlightAware ADS-B
09:44AM 37.9326 -122.0492 80° East 366 421 11,000 540 Climbing FlightAware ADS-B (KSJC)
09:44AM 37.9362 -122.0230 80° East 377 434 11,100 1,200 Climbing FlightAware ADS-B
09:45AM 37.9429 -121.9731 80° East 379 436 11,700 1,500 Climbing FlightAware ADS-B (KSCK)
09:45AM 37.9456 -121.9530 80° East 380 437 11,900 1,380 Climbing FlightAware ADS-B
09:45AM 37.9551 -121.8860 80° East 392 451 12,600 1,500 Climbing FlightAware ADS-B
09:45AM 37.9549 -121.8863 80° East 392 451 12,700 1,380 Climbing FlightAware ADS-B (KSCK)
09:46AM 37.9686 -121.7900 80° East 405 466 13,600 1,560 Climbing FlightAware ADS-B (KSCK)
09:46AM 37.9785 -121.7200 80° East 407 468 14,600 1,860 Climbing FlightAware ADS-B
09:47AM 37.9822 -121.6913 80° East 410 472 15,000 1,500 Climbing FlightAware ADS-B (KSJC)
09:47AM 37.9887 -121.6440 80° East 414 476 15,400 1,380 Climbing FlightAware ADS-B
09:47AM 37.9929 -121.6149 80° East 418 481 15,700 1,260 Climbing FlightAware ADS-B (KAUN)
09:47AM 37.9991 -121.5690 80° East 423 487 16,100 1,620 Climbing FlightAware ADS-B
09:48AM 38.0038 -121.5345 80° East 427 491 16,600 1,380 Climbing FlightAware ADS-B (KAUN)
09:48AM 38.0093 -121.4930 80° East 430 495 16,800 1,140 Climbing FlightAware ADS-B
09:48AM 38.0144 -121.4551 80° East 433 498 17,200 1,500 Climbing FlightAware ADS-B (KSCK)
09:48AM 38.0202 -121.4130 80° East 435 501 17,600 1,620 Climbing FlightAware ADS-B
09:49AM 38.0278 -121.3547 80° East 435 501 18,300 1,800 Climbing FlightAware ADS-B (KSCK)
09:49AM 38.0337 -121.3120 80° East 437 503 18,800 1,440 Climbing FlightAware ADS-B
09:49AM 38.0403 -121.2637 81° East 440 506 19,200 1,320 Climbing FlightAware ADS-B (KAUN)
09:50AM 38.0457 -121.2230 80° East 441 507 19,600 1,500 Climbing FlightAware ADS-B
09:50AM 38.0531 -121.1667 81° East 446 513 20,200 1,200 Climbing FlightAware ADS-B (KAUN)
09:51AM 38.0672 -121.0597 81° East 455 524 20,900 1,080 Climbing FlightAware ADS-B (KAUN)
09:51AM 38.0813 -120.9537 80° East 464 534 21,700 1,080 Climbing FlightAware ADS-B (KAUN)
09:52AM 38.0963 -120.8429 80° East 471 542 22,400 1,080 Climbing FlightAware ADS-B (KAUN)
09:53AM 38.1112 -120.7335 80° East 476 548 23,200 1,020 Climbing FlightAware ADS-B (KAUN)
09:53AM 38.1261 -120.6225 81° East 484 557 23,800 1,200 Climbing FlightAware ADS-B (KAUN)
09:54AM 38.1412 -120.5080 81° East 482 555 24,800 1,080 Climbing FlightAware ADS-B (KAUN)
09:55AM 38.1556 -120.3982 81° East 490 564 25,300 780 Climbing FlightAware ADS-B (KAUN)
09:55AM 38.1691 -120.2954 81° East 496 571 25,900 780 Climbing FlightAware ADS-B (KAUN)
09:56AM 38.1858 -120.1683 81° East 504 580 26,400 720 Climbing FlightAware ADS-B (KAUN)
09:57AM 38.2008 -120.0507 81° East 510 587 26,900 780 Climbing FlightAware ADS-B (KAUN)
09:57AM 38.2158 -119.9322 81° East 513 590 27,500 900 Climbing FlightAware ADS-B (KAUN)
09:58AM 38.2302 -119.8189 81° East 517 595 28,100 840 Climbing FlightAware ADS-B (KAUN)
09:59AM 38.2537 -119.6319 81° East 521 600 28,900 780 Climbing FlightAware ADS-B (KAUN)
10:00AM 38.2686 -119.5106 81° East 523 602 29,400 660 Climbing FlightAware ADS-B (KAUN)
10:00AM 38.2835 -119.3889 81° East 527 606 29,800 780 Climbing FlightAware ADS-B (KAUN)
10:01AM 38.2984 -119.2666 81° East 525 604 30,500 1,020 Climbing FlightAware ADS-B (KAUN)
10:02AM 38.3119 -119.1570 81° East 523 602 31,100 840 Climbing FlightAware ADS-B (KAUN)
10:03AM 38.3313 -118.9927 82° East 523 602 31,800 600 Climbing FlightAware ADS-B (KAUN)
10:04AM 38.3492 -118.8322 82° East 522 601 32,200 360 Climbing Salt Lake Center
10:04AM 38.3583 -118.7578 81° East 524 603 32,400 420 Climbing Oakland Center
10:10AM 38.4776 -117.6967 83° East 521 600 35,000 360 Climbing FlightAware ADS-B (KVGT)
10:11AM 38.5048 -117.4400 83° East 523 602 35,000  Level FlightAware ADS-B (KVGT)
10:12AM 38.5171 -117.3146 87° East 522 601 35,000  Level FlightAware ADS-B (KVGT)
10:12AM 38.5142 -117.2136 92° East 520 598 35,000  Level FlightAware ADS-B (KVGT)
10:13AM 38.5036 -117.0828 96° East 519 597 35,000  Level FlightAware ADS-B (KVGT)
10:14AM 38.4944 -116.9672 96° East 519 597 35,000  Level FlightAware ADS-B (KVGT)
10:14AM 38.4831 -116.8334 95° East 519 597 35,000  Level FlightAware ADS-B (KVGT)
10:15AM 38.4739 -116.7268 95° East 519 597 35,000  Level FlightAware ADS-B (KVGT)
10:16AM 38.4628 -116.5987 95° East 519 597 35,000  Level FlightAware ADS-B (KVGT)
10:16AM 38.4534 -116.4922 95° East 519 597 35,000 60 Level FlightAware ADS-B (KVGT)
10:17AM 38.4437 -116.3827 96° East 518 596 35,100  Climbing FlightAware ADS-B (KVGT)
10:18AM 38.4286 -116.2225 96° East 520 598 35,000 -60 Descending Salt Lake Center
10:19AM 38.4117 -116.0408 97° East 520 598 35,000  Level Salt Lake Center
10:20AM 38.3956 -115.8578 96° East 519 597 35,000  Level Salt Lake Center
10:21AM 38.3764 -115.6761 98° East 519 597 35,000  Level Salt Lake Center
10:22AM 38.3583 -115.4944 97° East 519 597 35,000  Level Salt Lake Center
10:23AM 38.3444 -115.3089 95° East 518 596 35,000  Level Salt Lake Center
10:24AM 38.3258 -115.1281 97° East 518 596 35,000  Level Salt Lake Center
10:25AM 38.3036 -114.9114 97° East 517 595 35,000  Level Salt Lake Center
10:31AM 38.4062 -113.9140 68° East 518 596 35,000  Level FlightAware ADS-B (KPVU)
10:31AM 38.4384 -113.8124 68° East 518 596 35,000  Level FlightAware ADS-B
10:32AM 38.4746 -113.6994 68° East 518 596 35,000  Level FlightAware ADS-B (KPVU)
10:33AM 38.5134 -113.5778 68° East 518 596 35,000  Level FlightAware ADS-B (KPVU)
10:33AM 38.5451 -113.4787 68° East 517 595 35,000  Level FlightAware ADS-B
10:34AM 38.5847 -113.3539 68° East 517 595 35,000  Level FlightAware ADS-B (KPVU)
10:35AM 38.6213 -113.2348 68° East 517 595 35,000  Level FlightAware ADS-B (KPVU)
10:35AM 38.6508 -113.1413 68° East 518 596 35,000  Level FlightAware ADS-B
10:36AM 38.6882 -113.0220 68° East 519 597 35,000  Level FlightAware ADS-B (KPVU)
10:37AM 38.7179 -112.9252 68° East 519 597 35,000  Level FlightAware ADS-B (KBTF)
10:37AM 38.7535 -112.8110 69° East 518 596 35,000  Level FlightAware ADS-B (KPVU)
10:38AM 38.7833 -112.7139 69° East 516 594 35,000  Level FlightAware ADS-B (KBTF)
10:38AM 38.8130 -112.6169 69° East 519 597 35,000  Level FlightAware ADS-B
10:39AM 38.8414 -112.5253 69° East 520 598 35,000  Level FlightAware ADS-B (KPVU)
10:39AM 38.8672 -112.4393 69° East 520 598 35,000  Level FlightAware ADS-B
10:40AM 38.8939 -112.3532 69° East 519 597 35,000  Level FlightAware ADS-B (KPVU)
10:41AM 38.9307 -112.2298 70° East 517 595 35,000  Level FlightAware ADS-B (KBTF)
10:41AM 38.9666 -112.1116 69° East 520 598 35,000  Level FlightAware ADS-B
10:42AM 38.9959 -112.0137 70° East 518 596 35,000  Level FlightAware ADS-B (KBTF)
10:43AM 39.0390 -111.8559 72° East 521 600 35,000  Level FlightAware ADS-B (KBTF)
10:43AM 39.0677 -111.7443 72° East 520 598 35,000  Level FlightAware ADS-B (KPVU)
10:45AM 39.1276 -111.5162 72° East 519 597 35,000  Level FlightAware ADS-B
10:45AM 39.1536 -111.4138 72° East 517 595 35,000  Level FlightAware ADS-B (KMTJ)
10:46AM 39.1808 -111.3088 72° East 516 594 35,000  Level FlightAware ADS-B (KMTJ)
10:47AM 39.2105 -111.1923 72° East 516 594 35,000  Level FlightAware ADS-B (KMTJ)
10:47AM 39.2402 -111.0786 72° East 515 593 35,000  Level FlightAware ADS-B (KMTJ)
10:48AM 39.2652 -110.9796 72° East 515 593 35,000  Level FlightAware ADS-B
10:48AM 39.2940 -110.8660 72° East 514 592 35,000  Level FlightAware ADS-B (KMTJ)
10:49AM 39.3189 -110.7668 72° East 514 592 35,000  Level FlightAware ADS-B
10:50AM 39.3484 -110.6506 72° East 513 590 35,000  Level FlightAware ADS-B (KPVU)
10:50AM 39.3699 -110.5663 72° East 510 587 35,000  Level FlightAware ADS-B (KMTJ)
10:51AM 39.3951 -110.4647 72° East 511 588 35,000  Level FlightAware ADS-B (KGJT)
10:51AM 39.4178 -110.3719 72° East 510 587 35,000  Level FlightAware ADS-B (KMTJ)
10:52AM 39.4487 -110.2471 72° East 510 587 35,000  Level FlightAware ADS-B (KGJT)
10:53AM 39.4751 -110.1398 72° East 510 587 35,000  Level FlightAware ADS-B (KMTJ)
10:53AM 39.5006 -110.0352 73° East 510 587 35,000  Level FlightAware ADS-B (KGJT)
10:54AM 39.5233 -109.9416 72° East 512 589 35,000  Level FlightAware ADS-B (KMTJ)
10:54AM 39.5472 -109.8486 72° East 512 589 35,000  Level FlightAware ADS-B (KMTJ)
10:55AM 39.5676 -109.7701 72° East 513 590 35,000  Level FlightAware ADS-B (KGJT)
10:55AM 39.5922 -109.6737 72° East 514 592 35,000 60 Level FlightAware ADS-B (KMTJ)
10:56AM 39.6196 -109.5723 70° East 513 590 35,100 60 Climbing FlightAware ADS-B (KMTJ)
10:57AM 39.6526 -109.4570 70° East 512 589 35,100 -120 Level FlightAware ADS-B (KMTJ)
10:57AM 39.6848 -109.3424 70° East 508 585 35,000 -120 Descending FlightAware ADS-B (KGJT)
10:58AM 39.7085 -109.2566 70° East 505 581 35,000  Level FlightAware ADS-B (KMTJ)
10:58AM 39.7337 -109.1654 70° East 504 580 35,000  Level FlightAware ADS-B (KMTJ)
10:59AM 39.7576 -109.0774 70° East 502 578 35,000  Level FlightAware ADS-B (KGJT)
10:59AM 39.7821 -108.9893 70° East 502 578 35,000  Level FlightAware ADS-B (KMTJ)
11:00AM 39.8123 -108.8784 71° East 505 581 35,000  Level FlightAware ADS-B (KMTJ)
11:01AM 39.8450 -108.7581 71° East 507 583 35,000  Level FlightAware ADS-B (KMTJ)
11:01AM 39.8697 -108.6689 71° East 507 583 35,000  Level FlightAware ADS-B (KMTJ)
11:02AM 39.8934 -108.5801 71° East 505 581 35,000  Level FlightAware ADS-B (KGJT)
11:02AM 39.9159 -108.4967 71° East 506 582 35,000  Level FlightAware ADS-B (KMTJ)
11:03AM 39.9412 -108.4019 71° East 508 585 35,000  Level FlightAware ADS-B
11:03AM 39.9649 -108.3123 71° East 510 587 35,000  Level FlightAware ADS-B (KMTJ)
11:04AM 39.9997 -108.1819 71° East 508 585 35,000  Level FlightAware ADS-B (KMTJ)
11:05AM 40.0303 -108.0664 71° East 508 585 35,000  Level FlightAware ADS-B (KMTJ)
11:05AM 40.0522 -107.9826 71° East 507 583 35,000  Level FlightAware ADS-B (KGJT)
11:06AM 40.0807 -107.8726 73° East 507 583 35,000  Level FlightAware ADS-B (KMTJ)
11:06AM 40.0957 -107.8080 74° East 507 583 35,000  Level FlightAware ADS-B (KGJT)
11:07AM 40.1235 -107.6854 73° East 505 581 35,000  Level FlightAware ADS-B (KMTJ)
11:07AM 40.1410 -107.6094 73° East 504 580 35,000  Level FlightAware ADS-B (KBJC)
11:08AM 40.1678 -107.4928 73° East 504 580 35,000  Level FlightAware ADS-B (KMTJ)
11:08AM 40.1913 -107.3909 74° East 503 579 35,000  Level FlightAware ADS-B (KANK)
11:09AM 40.2142 -107.2919 74° East 503 579 35,000  Level FlightAware ADS-B (KBJC)
11:09AM 40.2320 -107.2133 73° East 503 579 35,000  Level FlightAware ADS-B (KMTJ)
11:10AM 40.2470 -107.1465 74° East 502 578 35,000  Level FlightAware ADS-B (KMTJ)
11:10AM 40.2689 -107.0505 74° East 501 577 35,000  Level FlightAware ADS-B (KEIK)
11:11AM 40.2957 -106.9316 74° East 501 577 35,000  Level FlightAware ADS-B (KGJT)
11:12AM 40.3268 -106.7919 74° East 501 577 35,000  Level FlightAware ADS-B (KANK)
11:13AM 40.3524 -106.6759 74° East 499 574 35,000  Level FlightAware ADS-B (KEIK)
11:13AM 40.3799 -106.5512 74° East 499 574 35,000  Level FlightAware ADS-B (KANK)
11:14AM 40.4072 -106.4296 74° East 497 572 35,000  Level FlightAware ADS-B (KEIK)
11:15AM 40.4312 -106.3193 74° East 496 571 35,000  Level FlightAware ADS-B (KEIK)
11:15AM 40.4594 -106.1895 74° East 496 571 35,000  Level FlightAware ADS-B (KEIK)
11:16AM 40.4837 -106.0764 75° East 497 572 35,000  Level FlightAware ADS-B (KEIK)
11:17AM 40.5025 -105.9833 80° East 497 572 35,000  Level FlightAware ADS-B
11:17AM 40.5184 -105.8707 80° East 497 572 35,000  Level FlightAware ADS-B (KANK)
11:18AM 40.5315 -105.7787 79° East 499 574 35,000  Level FlightAware ADS-B (KEIK)
11:18AM 40.5456 -105.6802 80° East 501 577 35,000  Level FlightAware ADS-B (KANK)
11:19AM 40.5630 -105.5544 80° East 502 578 35,000 60 Level FlightAware ADS-B (KANK)
11:19AM 40.5768 -105.4555 80° East 502 578 35,100 60 Climbing FlightAware ADS-B (KEIK)
11:20AM 40.5892 -105.3656 80° East 502 578 35,100 -120 Level FlightAware ADS-B (KANK)
11:21AM 40.6078 -105.2300 80° East 504 580 35,000  Descending FlightAware ADS-B (KANK)
11:21AM 40.6228 -105.1219 80° East 502 578 35,100  Climbing FlightAware ADS-B (KEIK)
11:22AM 40.6387 -105.0019 80° East 500 575 35,000 -120 Descending FlightAware ADS-B (KEIK)
11:23AM 40.6550 -104.8796 80° East 499 574 35,000  Level FlightAware ADS-B (KEIK)
11:23AM 40.6727 -104.7455 80° East 498 573 35,000  Level FlightAware ADS-B (KANK)
11:24AM 40.6884 -104.6259 80° East 500 575 35,000  Level FlightAware ADS-B (KANK)
11:25AM 40.7063 -104.4881 80° East 499 574 35,000  Level FlightAware ADS-B (KEIK)
11:26AM 40.7233 -104.3565 80° East 500 575 35,000  Level FlightAware ADS-B (KEIK)
11:26AM 40.7384 -104.2392 81° East 501 577 35,000  Level FlightAware ADS-B (KEIK)
11:27AM 40.7546 -104.1100 81° East 501 577 35,000  Level FlightAware ADS-B (KANK)
11:28AM 40.7658 -104.0195 81° East 502 578 35,000  Level FlightAware ADS-B (KEIK)
11:28AM 40.7816 -103.8930 81° East 501 577 35,000  Level FlightAware ADS-B (KEIK)
11:29AM 40.7960 -103.7787 81° East 501 577 35,000  Level FlightAware ADS-B (KANK)
11:29AM 40.8090 -103.6703 81° East 499 574 35,000  Level FlightAware ADS-B (KEIK)
11:30AM 40.8247 -103.5410 81° East 501 577 35,000  Level FlightAware ADS-B (KEIK)
11:31AM 40.8404 -103.4109 81° East 502 578 35,000  Level FlightAware ADS-B (KANK)
11:32AM 40.8550 -103.2899 81° East 504 580 35,000  Level FlightAware ADS-B (KANK)
11:32AM 40.8665 -103.1926 81° East 505 581 35,000  Level FlightAware ADS-B (KEIK)
11:33AM 40.8791 -103.0833 81° East 505 581 35,000  Level FlightAware ADS-B (KEIK)
11:33AM 40.8898 -102.9919 81° East 506 582 35,000  Level FlightAware ADS-B (KANK)
11:34AM 40.9095 -102.8209 82° East 506 582 35,000  Level FlightAware ADS-B (KEIK)
11:35AM 40.9232 -102.7019 82° East 506 582 35,000 60 Level FlightAware ADS-B (KANK)
11:35AM 40.9360 -102.5855 82° East 506 582 35,100  Climbing FlightAware ADS-B (KANK)
11:36AM 40.9529 -102.4329 82° East 506 582 35,000 -120 Descending FlightAware ADS-B (KANK)
11:37AM 40.9659 -102.3165 82° East 506 582 35,000  Level FlightAware ADS-B (KANK)
11:38AM 40.9871 -102.1209 82° East 506 582 35,000  Level FlightAware ADS-B (KEIK)
11:38AM 40.9979 -102.0199 82° East 506 582 35,000  Level FlightAware ADS-B (KEIK)
11:40AM 41.0261 -101.8151 79° East 490 564 35,000  Level FlightAware ADS-B (KEIK)
11:40AM 41.0364 -101.7111 89° East 492 566 35,000  Level FlightAware ADS-B (KEIK)
11:41AM 41.0439 -101.5704 82° East 491 565 35,000  Level FlightAware ADS-B (KEIK)
11:42AM 41.0532 -101.4781 83° East 491 565 35,000  Level FlightAware ADS-B (KEIK)
11:42AM 41.0619 -101.3827 83° East 496 571 35,000  Level FlightAware ADS-B (KEIK)
11:43AM 41.0776 -101.2081 83° East 500 575 35,000  Level FlightAware ADS-B (KEIK)
11:44AM 41.0962 -101.0064 83° East 505 581 35,000  Level FlightAware ADS-B (KEIK)
11:45AM 41.1065 -100.8899 83° East 505 581 35,000  Level FlightAware ADS-B (KEIK)
11:46AM 41.1308 -100.6177 83° East 503 579 35,000  Level FlightAware ADS-B (KEIK)
11:47AM 41.1492 -100.4042 83° East 503 579 35,000  Level Minneapolis Center
11:49AM 41.1647 -100.2189 84° East 503 579 35,000  Level Minneapolis Center
11:50AM 41.1811 -100.0339 83° East 503 579 35,000  Level Minneapolis Center
11:51AM 41.1989 -99.8122 84° East 503 579 35,000  Level Minneapolis Center
11:52AM 41.2167 -99.6000 84° East 502 578 35,000  Level Denver Center
11:53AM 41.2294 -99.4228 84° East 503 579 35,000  Level Denver Center
11:54AM 41.2442 -99.2219 84° East 502 578 35,000  Level Denver Center
11:55AM 41.2572 -99.0656 84° East 502 578 35,000  Level Minneapolis Center
11:56AM 41.2722 -98.8831 84° East 501 577 35,000  Level Minneapolis Center
11:57AM 41.2864 -98.6964 84° East 503 579 35,000  Level Minneapolis Center
11:58AM 41.2967 -98.5153 86° East 499 574 35,000  Level Minneapolis Center
11:59AM 41.3114 -98.2925 85° East 497 572 35,000  Level Minneapolis Center
12:00PM 41.3236 -98.1103 85° East 497 572 35,000  Level Minneapolis Center
12:01PM 41.3347 -97.9331 85° East 496 571 35,000  Level Minneapolis Center
12:02PM 41.3461 -97.7528 85° East 492 566 35,000  Level Minneapolis Center
12:03PM 41.3575 -97.5706 85° East 491 565 35,000  Level Minneapolis Center
12:04PM 41.3681 -97.3925 85° East 486 559 35,000  Level Minneapolis Center
12:09PM 41.4166 -96.5128 86° East 489 563 35,000  Level FlightAware ADS-B
12:09PM 41.4213 -96.4227 86° East 489 563 35,000  Level FlightAware ADS-B
12:10PM 41.4260 -96.3299 86° East 488 562 35,000  Level FlightAware ADS-B
12:10PM 41.4313 -96.2223 86° East 487 560 35,000  Level FlightAware ADS-B
12:10PM 41.4321 -96.2042 86° East 486 559 35,000  Level FlightAware ADS-B (KFOD)
12:11PM 41.4357 -96.1329 86° East 485 558 35,000  Level FlightAware ADS-B
12:11PM 41.4399 -96.0438 86° East 483 556 35,000  Level FlightAware ADS-B
12:12PM 41.4443 -95.9489 86° East 482 555 35,000  Level FlightAware ADS-B
12:12PM 41.4485 -95.8574 87° East 481 554 35,000  Level FlightAware ADS-B
12:13PM 41.4495 -95.8369 87° East 481 554 35,000  Level FlightAware ADS-B (KFOD)
12:13PM 41.4527 -95.7688 87° East 481 554 35,000  Level FlightAware ADS-B
12:13PM 41.4566 -95.6803 87° East 482 555 35,000  Level FlightAware ADS-B
12:14PM 41.4607 -95.5884 87° East 484 557 35,000  Level FlightAware ADS-B
12:14PM 41.4645 -95.4992 87° East 485 558 35,000  Level FlightAware ADS-B
12:14PM 41.4649 -95.4900 87° East 485 558 35,000  Level FlightAware ADS-B (KFOD)
12:15PM 41.4687 -95.3978 87° East 485 558 35,000  Level FlightAware ADS-B
12:16PM 41.4733 -95.2876 87° East 486 559 35,000  Level FlightAware ADS-B (KFOD)
12:16PM 41.4775 -95.1831 87° East 485 558 35,000  Level FlightAware ADS-B
12:17PM 41.4797 -95.1262 87° East 486 559 35,000  Level FlightAware ADS-B (KFOD)
12:17PM 41.4812 -95.0876 87° East 486 559 35,000 120 Level FlightAware ADS-B
12:17PM 41.4840 -95.0188 87° East 486 559 35,100 60 Climbing FlightAware ADS-B (KFOD)
12:18PM 41.4888 -94.8934 87° East 485 558 35,100 -120 Level FlightAware ADS-B (KFOD)
12:19PM 41.4934 -94.7688 87° East 481 554 35,000 -120 Descending FlightAware ADS-B (KFOD)
12:19PM 41.4973 -94.6570 88° East 478 550 35,000  Level FlightAware ADS-B (KFOD)
12:20PM 41.5016 -94.5339 88° East 478 550 35,000  Level FlightAware ADS-B (KFOD)
12:20PM 41.5055 -94.4189 88° East 481 554 35,000  Level FlightAware ADS-B (KFOD)
12:21PM 41.5095 -94.3000 88° East 485 558 35,000  Level FlightAware ADS-B (KFOD)
12:22PM 41.5132 -94.1835 88° East 488 562 35,000  Level FlightAware ADS-B (KFOD)
12:22PM 41.5168 -94.0665 88° East 485 558 35,000  Level FlightAware ADS-B (KFOD)
12:23PM 41.5206 -93.9380 88° East 485 558 35,000  Level FlightAware ADS-B (KFOD)
12:24PM 41.5237 -93.8280 88° East 482 555 35,000  Level FlightAware ADS-B (KFOD)
12:25PM 41.5273 -93.6972 88° East 483 556 35,000  Level FlightAware ADS-B (KFOD)
12:26PM 41.5320 -93.5159 88° East 484 557 35,000  Level FlightAware ADS-B (KFOD)
12:26PM 41.5350 -93.3969 88° East 485 558 35,000  Level FlightAware ADS-B (KFOD)
12:28PM 41.5333 -93.1630 101° East 487 560 35,000  Level FlightAware ADS-B (KFOD)
12:28PM 41.5185 -93.0812 104° East 488 562 35,000  Level FlightAware ADS-B (KFOD)
12:29PM 41.4905 -92.9323 104° East 489 563 35,000  Level FlightAware ADS-B (KFOD)
12:29PM 41.4714 -92.8301 104° East 490 564 35,000  Level FlightAware ADS-B (KCID)
12:30PM 41.4765 -92.8563 104° East 490 564 35,000  Level FlightAware ADS-B (KFOD)
12:31PM 41.4281 -92.6025 105° East 487 560 35,000  Level FlightAware ADS-B (KCID)
12:32PM 41.3975 -92.4466 104° East 484 557 35,000  Level FlightAware ADS-B (KCID)
12:33PM 41.3626 -92.2631 104° East 481 554 35,000  Level FlightAware ADS-B (KCID)
12:38PM 41.1863 -91.3838 105° East 480 552 35,100  Climbing FlightAware ADS-B (KCID)
12:39PM 41.1554 -91.2313 105° East 494 568 35,000 -60 Descending FlightAware ADS-B (KMDW)
12:39PM 41.1251 -91.0853 105° East 493 567 35,000  Level FlightAware ADS-B (KMDW)
12:43PM 41.0096 -90.5338 106° East 503 579 35,000  Level FlightAware ADS-B (KPWK)
12:44PM 40.9704 -90.3497 106° East 506 582 35,100  Climbing FlightAware ADS-B (KPWK)
12:45PM 40.9431 -90.2215 106° East 508 585 35,100 -60 Level FlightAware ADS-B (KPWK)
12:45PM 40.9047 -90.0451 106° East 511 588 35,000 -60 Descending FlightAware ADS-B (KPWK)
12:47PM 40.8378 -89.7390 106° East 513 590 35,000  Level FlightAware ADS-B (KPWK)
12:48PM 40.7975 -89.5588 106° East 514 592 35,000  Level FlightAware ADS-B (KMDW)
12:49PM 40.7738 -89.4537 106° East 513 590 35,000  Level FlightAware ADS-B (KMDW)
12:50PM 40.7243 -89.2300 106° East 512 589 35,000  Level FlightAware ADS-B (KPWK)
12:51PM 40.6894 -89.0784 107° East 509 586 35,000 -60 Level FlightAware ADS-B (KPWK)
12:52PM 40.6501 -88.9039 107° East 509 586 34,900 -120 Descending FlightAware ADS-B (KMDW)
12:52PM 40.6411 -88.8655 107° East 511 588 34,800 -1,740 Descending FlightAware ADS-B (KMDW)
12:53PM 40.5753 -88.5837 107° East 511 588 31,900 -3,000 Descending FlightAware ADS-B (KMDW)
12:54PM 40.5533 -88.4868 106° East 488 562 29,500 -3,120 Descending FlightAware ADS-B (KMDW)
12:56PM 40.4952 -88.2393 108° East 439 505 25,500 -3,120 Descending FlightAware ADS-B (KPWK)
12:56PM 40.4606 -88.0956 107° East 450 518 22,500 -2,100 Descending FlightAware ADS-B (KMDW)
12:59PM 40.3842 -87.7750 107° East 440 506 19,000 -1,080 Descending Indianapolis Center
01:00PM 40.3486 -87.6233 107° East 438 504 19,000 -480 Level Indianapolis Center
01:01PM 40.2983 -87.4136 107° East 437 503 18,000 -780 Descending Chicago Center
01:02PM 40.2611 -87.2667 108° East 431 496 17,300 -720 Descending Chicago Center
01:03PM 40.2244 -87.1181 108° East 429 494 16,600 -1,320 Descending Chicago Center
01:04PM 40.1889 -86.9731 108° East 424 488 14,600 -1,860 Descending Chicago Center
01:05PM 40.1400 -86.8397 116° Southeast 414 476 12,800 -1,560 Descending Chicago Center
01:06PM 40.0786 -86.7519 132° Southeast 408 470 11,800 -1,020 Descending Indianapolis Center
01:07PM 40.0078 -86.6458 131° Southeast 395 455 11,000 -720 Descending Indianapolis Center
01:08PM 39.9469 -86.5586 132° Southeast 337 388 10,400 -1,320 Descending Indianapolis Center
01:09PM 39.8808 -86.4619 132° Southeast 307 353 8,300 -2,100 Descending Indianapolis Center
01:10PM 39.8675 -86.3639 100° East 293 337 6,100 -2,100 Descending Indianapolis Center
01:11PM 39.8833 -86.2603 79° East 292 336 4,100 -1,080 Descending Indianapolis Center
01:12PM 39.8639 -86.1806 108° East 265 305 4,000 -480 Descending Indianapolis Center
01:13PM 39.8150 -86.1819 181° South 208 239 3,200 -780 Descending Indianapolis Center
01:14PM 39.7861 -86.2192 225° Southwest 168 193 2,400 -780 Descending Indianapolis Center
01:15PM 39.7592 -86.2536 225° Southwest 149 171 1,700 -720 Descending Indianapolis Center